sensor_id;sensor_type;location;lat;lon;timestamp;P1;durP1;ratioP1;P2;durP2;ratioP2
49820;SDS011;36893;52.520;13.450;2023-03-20T00:07:28;1.10;;;0.93;;
49820;SDS011;36893;52.520;13.450;2023-03-20T00:17:29;1.25;;;1.13;;
49820;SDS011;36893;52.520;13.450;2023-03-20T00:27:29;3.67;;;1.50;;
49820;SDS011;36893;52.520;13.450;2023-03-20T00:37:30;1.83;;;1.27;;
49820;SDS011;36893;52.520;13.450;2023-03-20T00:47:31;1.33;;;0.77;;
49820;SDS011;36893;52.520;13.450;2023-03-20T00:57:37;2.03;;;1.33;;
49820;SDS011;36893;52.520;13.450;2023-03-20T01:07:51;2.25;;;1.63;;
49820;SDS011;36893;52.520;13.450;2023-03-20T01:17:52;1.98;;;1.15;;
49820;SDS011;36893;52.520;13.450;2023-03-20T01:27:53;2.17;;;0.97;;
49820;SDS011;36893;52.520;13.450;2023-03-20T01:37:54;2.45;;;1.15;;
49820;SDS011;36893;52.520;13.450;2023-03-20T01:47:56;5.03;;;1.30;;
49820;SDS011;36893;52.520;13.450;2023-03-20T01:57:58;2.58;;;1.00;;
49820;SDS011;36893;52.520;13.450;2023-03-20T02:08:22;1.60;;;1.20;;
49820;SDS011;36893;52.520;13.450;2023-03-20T02:18:28;2.00;;;1.02;;
49820;SDS011;36893;52.520;13.450;2023-03-20T02:28:50;1.85;;;1.27;;
49820;SDS011;36893;52.520;13.450;2023-03-20T03:10:51;0.50;;;0.50;;
49820;SDS011;36893;52.520;13.450;2023-03-20T03:21:05;0.88;;;0.45;;
49820;SDS011;36893;52.520;13.450;2023-03-20T03:31:10;2.50;;;0.60;;
49820;SDS011;36893;52.520;13.450;2023-03-20T03:51:37;0.85;;;0.73;;
49820;SDS011;36893;52.520;13.450;2023-03-20T04:01:41;0.43;;;0.43;;
49820;SDS011;36893;52.520;13.450;2023-03-20T04:11:44;0.77;;;0.45;;
49820;SDS011;36893;52.520;13.450;2023-03-20T04:21:52;1.48;;;0.73;;
49820;SDS011;36893;52.520;13.450;2023-03-20T04:31:54;1.85;;;0.80;;
49820;SDS011;36893;52.520;13.450;2023-03-20T04:41:56;0.52;;;0.30;;
49820;SDS011;36893;52.520;13.450;2023-03-20T04:51:56;0.93;;;0.50;;
49820;SDS011;36893;52.520;13.450;2023-03-20T05:01:57;1.17;;;0.70;;
49820;SDS011;36893;52.520;13.450;2023-03-20T05:11:57;1.13;;;0.60;;
49820;SDS011;36893;52.520;13.450;2023-03-20T05:21:58;0.33;;;0.33;;
49820;SDS011;36893;52.520;13.450;2023-03-20T05:32:00;0.73;;;0.52;;
49820;SDS011;36893;52.520;13.450;2023-03-20T05:42:00;0.70;;;0.47;;
49820;SDS011;36893;52.520;13.450;2023-03-20T05:52:01;3.17;;;0.43;;
49820;SDS011;36893;52.520;13.450;2023-03-20T06:02:03;1.13;;;0.75;;
49820;SDS011;36893;52.520;13.450;2023-03-20T06:12:04;0.40;;;0.40;;
49820;SDS011;36893;52.520;13.450;2023-03-20T06:22:05;0.50;;;0.45;;
49820;SDS011;36893;52.520;13.450;2023-03-20T06:32:06;0.73;;;0.73;;
49820;SDS011;36893;52.520;13.450;2023-03-20T06:42:07;0.57;;;0.47;;
49820;SDS011;36893;52.520;13.450;2023-03-20T06:52:11;0.80;;;0.43;;
49820;SDS011;36893;52.520;13.450;2023-03-20T07:02:16;0.70;;;0.60;;
49820;SDS011;36893;52.520;13.450;2023-03-20T07:12:16;1.30;;;0.87;;
49820;SDS011;36893;52.520;13.450;2023-03-20T07:22:21;0.93;;;0.80;;
49820;SDS011;36893;52.520;13.450;2023-03-20T07:32:27;1.00;;;0.65;;
49820;SDS011;36893;52.520;13.450;2023-03-20T07:42:28;0.70;;;0.47;;
49820;SDS011;36893;52.520;13.450;2023-03-20T07:52:29;1.03;;;0.70;;
49820;SDS011;36893;52.520;13.450;2023-03-20T08:02:30;3.17;;;1.30;;
49820;SDS011;36893;52.520;13.450;2023-03-20T08:12:31;1.48;;;0.90;;
49820;SDS011;36893;52.520;13.450;2023-03-20T08:22:31;1.00;;;0.57;;
49820;SDS011;36893;52.520;13.450;2023-03-20T08:32:32;1.40;;;0.80;;
49820;SDS011;36893;52.520;13.450;2023-03-20T08:42:33;1.03;;;0.80;;
49820;SDS011;36893;52.520;13.450;2023-03-20T08:52:34;5.73;;;1.03;;
49820;SDS011;36893;52.520;13.450;2023-03-20T09:02:35;0.68;;;0.40;;
49820;SDS011;36893;52.520;13.450;2023-03-20T09:12:36;0.75;;;0.70;;
49820;SDS011;36893;52.520;13.450;2023-03-20T09:22:38;1.65;;;0.80;;
49820;SDS011;36893;52.520;13.450;2023-03-20T09:32:40;1.65;;;0.93;;
49820;SDS011;36893;52.520;13.450;2023-03-20T09:42:49;7.60;;;2.77;;
49820;SDS011;36893;52.520;13.450;2023-03-20T09:53:01;3.15;;;2.33;;
49820;SDS011;36893;52.520;13.450;2023-03-20T10:03:14;5.47;;;2.22;;
49820;SDS011;36893;52.520;13.450;2023-03-20T10:13:24;6.28;;;2.58;;
49820;SDS011;36893;52.520;13.450;2023-03-20T10:23:35;3.95;;;1.92;;
49820;SDS011;36893;52.520;13.450;2023-03-20T10:34:42;4.97;;;1.87;;
49820;SDS011;36893;52.520;13.450;2023-03-20T10:44:48;3.28;;;1.80;;
49820;SDS011;36893;52.520;13.450;2023-03-20T10:55:02;3.75;;;1.23;;
49820;SDS011;36893;52.520;13.450;2023-03-20T11:05:40;2.10;;;0.95;;
49820;SDS011;36893;52.520;13.450;2023-03-20T11:15:35;1.27;;;0.88;;
49820;SDS011;36893;52.520;13.450;2023-03-20T11:25:37;4.65;;;2.05;;
49820;SDS011;36893;52.520;13.450;2023-03-20T11:35:46;2.22;;;1.40;;
49820;SDS011;36893;52.520;13.450;2023-03-20T11:45:54;2.25;;;0.75;;
49820;SDS011;36893;52.520;13.450;2023-03-20T11:56:42;1.60;;;1.03;;
49820;SDS011;36893;52.520;13.450;2023-03-20T12:06:26;2.58;;;0.80;;
49820;SDS011;36893;52.520;13.450;2023-03-20T12:16:40;0.98;;;0.68;;
49820;SDS011;36893;52.520;13.450;2023-03-20T12:27:00;2.25;;;0.60;;
49820;SDS011;36893;52.520;13.450;2023-03-20T12:37:27;2.00;;;1.00;;
49820;SDS011;36893;52.520;13.450;2023-03-20T12:47:36;2.87;;;1.40;;
49820;SDS011;36893;52.520;13.450;2023-03-20T12:57:53;4.88;;;1.55;;
49820;SDS011;36893;52.520;13.450;2023-03-20T13:08:11;2.35;;;1.20;;
49820;SDS011;36893;52.520;13.450;2023-03-20T13:29:18;1.20;;;0.43;;
49820;SDS011;36893;52.520;13.450;2023-03-20T13:40:02;1.40;;;0.77;;
49820;SDS011;36893;52.520;13.450;2023-03-20T13:50:26;2.75;;;1.13;;
49820;SDS011;36893;52.520;13.450;2023-03-20T14:21:22;5.68;;;1.00;;
49820;SDS011;36893;52.520;13.450;2023-03-20T14:51:39;3.20;;;1.30;;
49820;SDS011;36893;52.520;13.450;2023-03-20T15:01:44;6.00;;;1.60;;
49820;SDS011;36893;52.520;13.450;2023-03-20T15:11:59;0.77;;;0.40;;
49820;SDS011;36893;52.520;13.450;2023-03-20T15:32:14;7.10;;;1.45;;
49820;SDS011;36893;52.520;13.450;2023-03-20T15:42:16;1.07;;;0.70;;
49820;SDS011;36893;52.520;13.450;2023-03-20T15:52:31;1.13;;;0.65;;
49820;SDS011;36893;52.520;13.450;2023-03-20T16:02:38;1.27;;;0.90;;
49820;SDS011;36893;52.520;13.450;2023-03-20T16:12:39;3.10;;;1.02;;
49820;SDS011;36893;52.520;13.450;2023-03-20T16:22:49;2.15;;;0.70;;
49820;SDS011;36893;52.520;13.450;2023-03-20T16:32:58;0.88;;;0.60;;
49820;SDS011;36893;52.520;13.450;2023-03-20T16:43:14;2.22;;;0.88;;
49820;SDS011;36893;52.520;13.450;2023-03-20T16:53:18;4.57;;;0.57;;
49820;SDS011;36893;52.520;13.450;2023-03-20T17:03:27;1.95;;;0.77;;
49820;SDS011;36893;52.520;13.450;2023-03-20T17:13:46;1.75;;;0.70;;
49820;SDS011;36893;52.520;13.450;2023-03-20T17:23:47;2.50;;;1.43;;
49820;SDS011;36893;52.520;13.450;2023-03-20T17:33:48;6.03;;;1.30;;
49820;SDS011;36893;52.520;13.450;2023-03-20T17:43:49;0.70;;;0.50;;
49820;SDS011;36893;52.520;13.450;2023-03-20T17:53:53;3.30;;;1.40;;
49820;SDS011;36893;52.520;13.450;2023-03-20T18:03:56;2.08;;;1.02;;
49820;SDS011;36893;52.520;13.450;2023-03-20T18:14:22;1.38;;;0.90;;
49820;SDS011;36893;52.520;13.450;2023-03-20T18:24:48;2.17;;;1.10;;
49820;SDS011;36893;52.520;13.450;2023-03-20T18:35:14;3.25;;;1.48;;
49820;SDS011;36893;52.520;13.450;2023-03-20T18:45:41;6.38;;;1.70;;
49820;SDS011;36893;52.520;13.450;2023-03-20T18:56:11;2.75;;;1.45;;
49820;SDS011;36893;52.520;13.450;2023-03-20T19:06:40;1.83;;;1.13;;
